Time;durP1;ratioP1;P1;durP2;ratioP2;P2;SDS_P1;SDS_P2;PMS_P1;PMS_P2;Temp;Humidity;BMP_temperature;BMP_pressure;BME280_temperature;BME280_humidity;BME280_pressure;Samples;Min_cycle;Max_cycle;Signal;HPM_P1;HPM_P2
2023/04/14 00:00:27;;;;;;;1.55;0.90;;;16.00;96.60;;;;;;4959038;28;20034;-49
2023/04/14 00:02:52;;;;;;;1.27;0.77;;;15.90;96.70;;;;;;4982426;28;20031;-49
2023/04/14 00:05:18;;;;;;;1.95;0.65;;;15.80;96.80;;;;;;4983662;28;20030;-49
2023/04/14 00:07:44;;;;;;;0.50;0.50;;;15.80;96.90;;;;;;4953756;28;20031;-49
2023/04/14 00:10:10;;;;;;;1.85;0.50;;;15.80;97.10;;;;;;4966670;28;20046;-49
2023/04/14 00:12:36;;;;;;;1.70;1.00;;;15.60;97.40;;;;;;4985338;28;20554;-50
2023/04/14 00:15:01;;;;;;;1.65;0.80;;;15.50;97.70;;;;;;4984343;28;20122;-49
2023/04/14 00:17:27;;;;;;;2.35;0.68;;;15.50;97.60;;;;;;4961492;28;20051;-49
2023/04/14 00:19:53;;;;;;;2.50;1.30;;;15.60;97.90;;;;;;4955043;28;20041;-49
2023/04/14 00:22:20;;;;;;;0.40;0.40;;;15.60;97.70;;;;;;4969591;28;20141;-49
2023/04/14 00:24:46;;;;;;;1.00;0.77;;;15.50;97.60;;;;;;4983014;28;20031;-50
2023/04/14 00:27:12;;;;;;;0.35;0.35;;;15.50;97.70;;;;;;4962595;28;20061;-49
2023/04/14 00:29:38;;;;;;;1.60;1.08;;;15.50;97.60;;;;;;4982968;28;20466;-50
2023/04/14 00:32:07;;;;;;;1.00;0.60;;;15.40;97.80;;;;;;4971687;28;20035;-49
2023/04/14 00:34:34;;;;;;;1.25;0.50;;;15.40;98.00;;;;;;4969432;28;20038;-49
2023/04/14 00:36:59;;;;;;;1.30;1.20;;;15.50;97.90;;;;;;4985547;28;20030;-50
2023/04/14 00:39:25;;;;;;;0.57;0.55;;;15.50;98.00;;;;;;4984157;28;20034;-49
2023/04/14 00:41:51;;;;;;;0.63;0.47;;;15.50;98.00;;;;;;4965327;28;20125;-49
2023/04/14 00:44:17;;;;;;;0.70;0.70;;;15.40;98.00;;;;;;4979443;28;20034;-49
2023/04/14 00:46:42;;;;;;;2.20;0.80;;;15.40;97.90;;;;;;4983774;28;20030;-49
2023/04/14 00:49:08;;;;;;;0.60;0.57;;;15.50;97.80;;;;;;4943804;29;20044;-49
2023/04/14 00:51:35;;;;;;;1.63;1.30;;;15.60;97.80;;;;;;4943242;29;20135;-50
2023/04/14 00:54:04;;;;;;;1.65;1.08;;;15.60;97.90;;;;;;4948642;29;20069;-50
2023/04/14 00:56:30;;;;;;;1.70;0.93;;;15.50;97.80;;;;;;4944453;29;20548;-49
2023/04/14 00:59:00;;;;;;;0.57;0.38;;;15.50;97.80;;;;;;4940648;28;20047;-49
2023/04/14 01:01:27;;;;;;;0.85;0.70;;;15.40;98.00;;;;;;4949841;28;20494;-49
2023/04/14 01:03:54;;;;;;;0.73;0.73;;;15.40;98.00;;;;;;4944156;28;20109;-49
2023/04/14 01:06:20;;;;;;;1.95;0.77;;;15.40;97.90;;;;;;4944792;28;20075;-49
2023/04/14 01:08:49;;;;;;;0.88;0.77;;;15.30;98.20;;;;;;4945979;28;20071;-49
2023/04/14 01:11:30;;;;;;;0.85;0.85;;;16.40;98.80;;;;;;4940590;28;20399;-50
2023/04/14 01:14:08;;;;;;;1.25;1.15;;;15.20;98.30;;;;;;4947595;28;20489;-49
2023/04/14 01:16:38;;;;;;;0.35;0.35;;;15.30;98.00;;;;;;4947644;28;20046;-49
2023/04/14 01:19:07;;;;;;;0.20;0.20;;;15.20;98.20;;;;;;4948299;28;20023;-48
2023/04/14 01:21:37;;;;;;;0.20;0.20;;;;;;;;;;4952140;28;20475;-49
2023/04/14 01:24:04;;;;;;;2.30;1.30;;;;;;;;;;4980684;28;20387;-49
2023/04/14 01:26:30;;;;;;;0.35;0.25;;;15.10;98.30;;;;;;4975135;28;20668;-49
2023/04/14 01:29:20;;;;;;;1.30;0.88;;;15.10;98.60;;;;;;4979072;28;20038;-49
2023/04/14 01:31:49;;;;;;;0.73;0.73;;;15.10;98.60;;;;;;4971747;28;20097;-49
2023/04/14 01:34:30;;;;;;;0.57;0.57;;;15.00;98.60;;;;;;4988225;28;20031;-48
2023/04/14 01:37:16;;;;;;;0.60;0.60;;;15.00;98.80;;;;;;4980126;28;20519;-49
2023/04/14 01:39:49;;;;;;;1.58;0.70;;;15.00;99.20;;;;;;4987866;28;20026;-49
2023/04/14 01:42:18;;;;;;;0.77;0.77;;;15.00;98.90;;;;;;4983045;28;20027;-49
2023/04/14 01:44:47;;;;;;;0.65;0.65;;;15.00;99.10;;;;;;4979082;28;20117;-49
2023/04/14 01:47:16;;;;;;;0.77;0.75;;;14.90;99.20;;;;;;4986285;28;20034;-50
2023/04/14 01:49:43;;;;;;;1.67;1.02;;;15.00;99.20;;;;;;4985916;28;20038;-50
2023/04/14 01:52:12;;;;;;;0.90;0.70;;;15.10;99.00;;;;;;4982504;28;20418;-49
2023/04/14 01:54:40;;;;;;;0.68;0.68;;;15.10;99.00;;;;;;4989873;28;20464;-49
2023/04/14 01:57:07;;;;;;;1.33;0.63;;;15.20;98.70;;;;;;4978655;28;20022;-50
2023/04/14 01:59:35;;;;;;;0.63;0.63;;;15.20;98.60;;;;;;4981070;28;20034;-49
2023/04/14 02:02:05;;;;;;;1.20;0.90;;;15.30;98.20;;;;;;4989038;28;20394;-49
2023/04/14 02:04:34;;;;;;;1.95;0.77;;;15.40;98.10;;;;;;4980279;28;20019;-51
2023/04/14 02:07:03;;;;;;;1.65;1.00;;;15.50;98.00;;;;;;4984518;28;20109;-48
2023/04/14 02:09:31;;;;;;;2.58;1.13;;;15.50;98.00;;;;;;4986033;28;20400;-49
2023/04/14 02:11:59;;;;;;;0.88;0.55;;;15.50;98.00;;;;;;4988023;28;20031;-49
2023/04/14 02:14:26;;;;;;;1.13;1.02;;;15.60;98.00;;;;;;4966832;28;20039;-49
2023/04/14 02:16:53;;;;;;;1.05;0.70;;;15.60;97.90;;;;;;4985015;28;20528;-50
2023/04/14 02:19:22;;;;;;;4.93;0.88;;;15.60;97.80;;;;;;4984090;28;20038;-49
2023/04/14 02:21:49;;;;;;;0.93;0.50;;;15.60;97.80;;;;;;4984081;28;20070;-49
2023/04/14 02:24:16;;;;;;;0.82;0.70;;;15.50;97.90;;;;;;4927269;28;20042;-49
2023/04/14 02:26:52;;;;;;;0.63;0.52;;;15.50;98.30;;;;;;4981282;28;20035;-49
2023/04/14 02:29:22;;;;;;;1.33;0.70;;;15.50;98.30;;;;;;4981932;28;20049;-49
2023/04/14 02:31:59;;;;;;;0.93;0.50;;;15.50;98.40;;;;;;4989825;28;20034;-49
2023/04/14 02:34:31;;;;;;;0.65;0.50;;;15.50;98.30;;;;;;4954734;28;20393;-49
2023/04/14 02:37:01;;;;;;;0.63;0.43;;;15.50;98.20;;;;;;4949198;28;20435;-49
2023/04/14 02:39:38;;;;;;;5.13;1.17;;;15.50;98.20;;;;;;4987179;28;20093;-49
2023/04/14 02:42:12;;;;;;;0.82;0.70;;;15.50;98.30;;;;;;4987991;28;20105;-49
2023/04/14 02:44:43;;;;;;;0.93;0.65;;;15.40;98.10;;;;;;4982910;28;21151;-49
2023/04/14 02:47:11;;;;;;;0.80;0.75;;;15.60;98.10;;;;;;4985651;28;20223;-49
2023/04/14 02:49:41;;;;;;;0.47;0.47;;;15.70;97.70;;;;;;4989912;28;20039;-50
2023/04/14 02:52:10;;;;;;;1.65;0.80;;;15.70;97.80;;;;;;4966387;28;20120;-49
2023/04/14 02:54:39;;;;;;;1.48;0.40;;;15.70;97.90;;;;;;4968198;28;20051;-51
2023/04/14 02:57:05;;;;;;;1.02;1.00;;;15.80;98.20;;;;;;4959394;28;20035;-49
2023/04/14 02:59:32;;;;;;;0.63;0.50;;;15.80;97.90;;;;;;4988550;28;20037;-49
2023/04/14 03:02:04;;;;;;;0.50;0.50;;;15.70;97.90;;;;;;4985644;28;20053;-49
2023/04/14 03:04:32;;;;;;;0.80;0.43;;;15.70;97.90;;;;;;4984410;28;20069;-49
2023/04/14 03:06:59;;;;;;;1.00;0.30;;;15.70;98.00;;;;;;4985083;28;20122;-49
2023/04/14 03:09:26;;;;;;;1.27;1.17;;;15.60;98.10;;;;;;4957801;28;20081;-49
2023/04/14 03:11:56;;;;;;;4.32;0.82;;;15.60;98.20;;;;;;4966470;28;20073;-48
2023/04/14 03:14:23;;;;;;;0.82;0.80;;;15.60;98.10;;;;;;4984037;28;20040;-49
2023/04/14 03:16:50;;;;;;;1.20;0.70;;;15.60;98.30;;;;;;4985842;28;20062;-49
2023/04/14 03:19:21;;;;;;;1.08;0.60;;;15.60;98.20;;;;;;4988754;28;20034;-49
2023/04/14 03:21:49;;;;;;;0.95;0.70;;;15.70;98.10;;;;;;4988954;28;20052;-50
2023/04/14 03:24:23;;;;;;;2.10;0.77;;;15.70;98.10;;;;;;4989684;28;20061;-50
2023/04/14 03:26:56;;;;;;;1.95;0.82;;;15.70;98.00;;;;;;4988678;28;20367;-49
2023/04/14 03:29:25;;;;;;;0.63;0.63;;;15.80;98.20;;;;;;4983224;28;20042;-50
2023/04/14 03:31:55;;;;;;;1.05;0.77;;;15.90;98.20;;;;;;4952433;28;20035;-50
2023/04/14 03:34:26;;;;;;;0.80;0.60;;;15.90;98.10;;;;;;4991821;28;20026;-50
2023/04/14 03:36:55;;;;;;;1.88;0.70;;;16.00;97.90;;;;;;4977913;28;20126;-49
2023/04/14 03:39:27;;;;;;;1.30;0.68;;;16.10;97.70;;;;;;4985398;28;20089;-49
2023/04/14 03:41:58;;;;;;;0.30;0.30;;;16.00;97.60;;;;;;4987740;28;20036;-50
2023/04/14 03:44:26;;;;;;;0.80;0.57;;;16.10;97.60;;;;;;4970638;28;20493;-49
2023/04/14 03:46:53;;;;;;;0.77;0.77;;;16.10;97.50;;;;;;4988784;28;20028;-49
2023/04/14 03:49:20;;;;;;;1.95;1.45;;;16.20;97.40;;;;;;4991811;28;20062;-49
2023/04/14 03:51:47;;;;;;;1.40;0.65;;;16.20;97.40;;;;;;4986468;28;20065;-49
2023/04/14 03:54:15;;;;;;;1.00;0.93;;;16.30;97.50;;;;;;4990892;28;20065;-49
2023/04/14 03:56:44;;;;;;;3.53;1.83;;;16.40;97.50;;;;;;4964347;28;20054;-49
2023/04/14 03:59:14;;;;;;;1.73;0.90;;;16.50;98.30;;;;;;4985420;28;20031;-49
2023/04/14 04:01:41;;;;;;;1.70;1.17;;;16.50;98.60;;;;;;4988712;28;20042;-48
2023/04/14 04:04:07;;;;;;;1.17;0.90;;;16.50;98.70;;;;;;4997783;28;20474;-47
2023/04/14 04:06:35;;;;;;;0.70;0.70;;;16.40;98.70;;;;;;4985447;28;20410;-48
2023/04/14 04:09:03;;;;;;;1.30;0.77;;;16.30;98.70;;;;;;4967799;28;20073;-48
2023/04/14 04:11:32;;;;;;;1.13;1.02;;;16.20;99.90;;;;;;4980865;28;20055;-49
2023/04/14 04:13:59;;;;;;;0.30;0.20;;;;;;;;;;4989991;28;20026;-48
2023/04/14 04:16:26;;;;;;;0.35;0.35;;;;;;;;;;4980304;28;20137;-48
2023/04/14 04:18:53;;;;;;;1.38;0.70;;;15.50;99.90;;;;;;4983121;28;20037;-48
2023/04/14 04:21:20;;;;;;;0.40;0.40;;;15.10;99.90;;;;;;4948235;28;20125;-47
2023/04/14 04:23:51;;;;;;;0.52;0.40;;;14.80;99.90;;;;;;4987504;28;20038;-47
2023/04/14 04:26:18;;;;;;;0.65;0.60;;;14.60;99.90;;;;;;4990168;28;20046;-47
2023/04/14 04:28:45;;;;;;;1.10;0.77;;;;;;;;;;4983555;28;20035;-50
2023/04/14 04:31:12;;;;;;;1.17;0.88;;;14.00;99.90;;;;;;4988620;28;20358;-49
2023/04/14 04:33:38;;;;;;;0.70;0.50;;;13.80;99.90;;;;;;4954446;28;20061;-50
2023/04/14 04:36:05;;;;;;;0.90;0.90;;;13.60;99.90;;;;;;4960289;28;20051;-50
2023/04/14 04:38:31;;;;;;;0.77;0.77;;;13.50;99.90;;;;;;4983964;28;20049;-49
2023/04/14 04:40:57;;;;;;;0.40;0.40;;;13.40;99.90;;;;;;4970620;28;20026;-49
2023/04/14 04:43:22;;;;;;;1.20;1.10;;;13.30;99.90;;;;;;4989401;28;20034;-50
2023/04/14 04:45:58;;;;;;;0.30;0.30;;;;;;;;;;4965374;28;20049;-50
2023/04/14 04:48:24;;;;;;;1.20;0.70;;;13.10;99.90;;;;;;4982765;28;20045;-53
2023/04/14 04:50:50;;;;;;;0.80;0.80;;;13.00;99.90;;;;;;4984969;28;20038;-50
2023/04/14 04:53:16;;;;;;;0.68;0.52;;;13.00;99.90;;;;;;4929452;29;20032;-50
2023/04/14 04:55:42;;;;;;;0.75;0.75;;;12.90;99.90;;;;;;4900885;29;20046;-50
2023/04/14 04:58:08;;;;;;;0.47;0.47;;;12.90;99.90;;;;;;4932782;29;20044;-49
2023/04/14 05:00:34;;;;;;;0.52;0.52;;;12.80;99.90;;;;;;4930847;29;20063;-49
2023/04/14 05:03:00;;;;;;;0.73;0.70;;;12.70;99.90;;;;;;4934502;29;20040;-49
2023/04/14 05:05:26;;;;;;;0.50;0.50;;;12.70;99.90;;;;;;4931701;29;20074;-50
2023/04/14 05:07:51;;;;;;;0.32;0.32;;;12.60;99.90;;;;;;4933449;29;20038;-49
2023/04/14 05:10:17;;;;;;;0.52;0.52;;;12.60;99.90;;;;;;4927745;29;20036;-49
2023/04/14 05:12:43;;;;;;;0.40;0.40;;;12.40;99.90;;;;;;4930019;29;20036;-50
2023/04/14 05:15:09;;;;;;;0.52;0.52;;;;;;;;;;4930697;29;20040;-49
2023/04/14 05:17:36;;;;;;;0.10;0.10;;;;;;;;;;4932627;29;20062;-49
2023/04/14 05:20:04;;;;;;;0.30;0.25;;;;;;;;;;4931655;29;20032;-49
2023/04/14 05:22:30;;;;;;;0.57;0.57;;;;;;;;;;4931801;29;20031;-50
2023/04/14 05:24:56;;;;;;;0.30;0.30;;;12.30;99.90;;;;;;4931602;29;20035;-50
2023/04/14 05:27:22;;;;;;;0.30;0.30;;;12.20;99.90;;;;;;4931672;29;20036;-50
2023/04/14 05:29:47;;;;;;;0.40;0.38;;;12.10;99.90;;;;;;4922110;28;20399;-50
2023/04/14 05:32:13;;;;;;;0.20;0.20;;;12.10;99.90;;;;;;4971127;28;20034;-48
2023/04/14 05:34:42;;;;;;;0.30;0.22;;;12.10;99.90;;;;;;4986655;28;20022;-47
2023/04/14 05:37:08;;;;;;;0.20;0.20;;;12.20;99.90;;;;;;4926219;28;20080;-50
2023/04/14 05:39:34;;;;;;;0.45;0.45;;;12.10;99.90;;;;;;4984879;28;20077;-49
2023/04/14 05:42:00;;;;;;;0.65;0.52;;;12.20;99.90;;;;;;4987356;28;20084;-51
2023/04/14 05:44:25;;;;;;;0.22;0.22;;;12.30;99.90;;;;;;4986344;28;20034;-49
2023/04/14 05:46:51;;;;;;;0.20;0.20;;;12.20;99.90;;;;;;4979660;28;20478;-50
2023/04/14 05:49:17;;;;;;;0.10;0.10;;;12.30;99.90;;;;;;4947603;28;20038;-50
2023/04/14 05:51:43;;;;;;;0.40;0.30;;;12.20;99.90;;;;;;4951879;28;20041;-49
2023/04/14 05:54:08;;;;;;;0.32;0.30;;;12.20;99.90;;;;;;4952548;28;20039;-50
2023/04/14 05:56:34;;;;;;;0.93;0.68;;;12.30;99.90;;;;;;4978921;28;20157;-49
2023/04/14 05:59:00;;;;;;;0.30;0.30;;;12.40;99.90;;;;;;4982176;28;20030;-48
2023/04/14 06:01:26;;;;;;;0.30;0.28;;;12.50;99.90;;;;;;4990752;28;20438;-49
2023/04/14 06:03:51;;;;;;;0.45;0.45;;;12.50;99.90;;;;;;4963470;28;20043;-50
2023/04/14 06:06:19;;;;;;;0.30;0.30;;;12.50;99.90;;;;;;4990944;28;20118;-50
2023/04/14 06:08:45;;;;;;;0.20;0.20;;;12.50;99.90;;;;;;4945331;28;20042;-50
2023/04/14 06:11:10;;;;;;;0.40;0.40;;;12.60;99.90;;;;;;4985134;28;20067;-50
2023/04/14 06:13:36;;;;;;;0.30;0.30;;;12.80;99.90;;;;;;4948384;28;20042;-50
2023/04/14 06:16:02;;;;;;;0.90;0.60;;;12.90;99.90;;;;;;4991038;28;20113;-48
2023/04/14 06:18:28;;;;;;;0.40;0.40;;;;;;;;;;4984937;28;20113;-48
2023/04/14 06:20:54;;;;;;;0.73;0.55;;;13.00;99.90;;;;;;4981726;28;20027;-50
2023/04/14 06:23:20;;;;;;;0.30;0.28;;;13.10;99.90;;;;;;4966272;28;20042;-50
2023/04/14 06:25:46;;;;;;;1.98;1.23;;;13.20;99.90;;;;;;4991177;28;20031;-49
2023/04/14 06:28:12;;;;;;;0.85;0.60;;;13.30;99.90;;;;;;4983928;28;20036;-48
2023/04/14 06:30:37;;;;;;;0.47;0.47;;;13.20;99.90;;;;;;4983272;28;20393;-51
2023/04/14 06:33:03;;;;;;;0.80;0.45;;;13.30;99.90;;;;;;4987997;28;20030;-47
2023/04/14 06:35:33;;;;;;;0.55;0.52;;;13.40;99.90;;;;;;4990744;28;20045;-47
2023/04/14 06:38:02;;;;;;;0.75;0.50;;;13.50;99.90;;;;;;4984657;28;20041;-47
2023/04/14 06:40:28;;;;;;;0.68;0.35;;;13.60;99.90;;;;;;4990138;28;20084;-49
2023/04/14 06:42:54;;;;;;;0.63;0.50;;;13.70;99.90;;;;;;4987246;28;20026;-49
2023/04/14 06:45:20;;;;;;;0.30;0.30;;;13.70;99.90;;;;;;4988390;28;20042;-47
2023/04/14 06:47:46;;;;;;;0.40;0.38;;;13.80;99.90;;;;;;4983227;28;20049;-47
2023/04/14 06:50:11;;;;;;;1.02;0.85;;;13.80;99.90;;;;;;4992760;28;20030;-49
2023/04/14 06:52:37;;;;;;;1.52;0.98;;;13.80;99.90;;;;;;4961530;28;20093;-47
2023/04/14 06:55:03;;;;;;;1.90;0.88;;;13.30;99.90;;;;;;4985566;28;20112;-46
2023/04/14 06:57:29;;;;;;;1.15;0.75;;;13.40;99.90;;;;;;4951087;28;20367;-47
2023/04/14 06:59:55;;;;;;;0.25;0.25;;;13.30;99.90;;;;;;4989395;28;20030;-47
2023/04/14 07:02:21;;;;;;;0.82;0.70;;;13.20;99.90;;;;;;4975368;28;20034;-48
2023/04/14 07:04:46;;;;;;;0.60;0.60;;;13.30;99.90;;;;;;4986842;28;20080;-48
2023/04/14 07:07:13;;;;;;;0.88;0.88;;;13.10;99.90;;;;;;4991085;28;20586;-47
2023/04/14 07:09:42;;;;;;;0.68;0.68;;;12.70;99.90;;;;;;4955915;28;20057;-47
2023/04/14 07:12:14;;;;;;;0.47;0.47;;;13.00;99.90;;;;;;4991953;28;20034;-48
2023/04/14 07:14:40;;;;;;;0.82;0.82;;;12.60;99.90;;;;;;4988527;28;20035;-48
2023/04/14 07:17:06;;;;;;;0.40;0.40;;;12.60;99.90;;;;;;4951129;28;20058;-48
2023/04/14 07:19:32;;;;;;;1.88;1.20;;;12.50;99.90;;;;;;4978445;28;20038;-48
2023/04/14 07:21:57;;;;;;;1.30;0.70;;;12.60;99.90;;;;;;4956759;28;20431;-47
2023/04/14 07:24:23;;;;;;;0.47;0.47;;;12.60;99.90;;;;;;4988536;28;20068;-48
2023/04/14 07:26:49;;;;;;;0.35;0.35;;;12.60;99.90;;;;;;4991039;28;20048;-47
2023/04/14 07:29:15;;;;;;;0.70;0.60;;;12.70;99.90;;;;;;4990391;28;20133;-47
2023/04/14 07:31:41;;;;;;;1.73;1.15;;;12.70;99.90;;;;;;4992971;28;20036;-49
2023/04/14 07:34:07;;;;;;;1.02;0.68;;;12.60;99.90;;;;;;4987806;28;20034;-47
2023/04/14 07:36:33;;;;;;;0.70;0.68;;;12.40;99.90;;;;;;4957749;28;20076;-48
2023/04/14 07:38:59;;;;;;;1.23;0.60;;;12.50;99.90;;;;;;4965613;28;20106;-48
2023/04/14 07:41:26;;;;;;;0.65;0.65;;;12.60;99.90;;;;;;4962333;28;20043;-48
2023/04/14 07:43:54;;;;;;;1.13;0.80;;;12.40;99.90;;;;;;4964453;28;20027;-48
2023/04/14 07:46:20;;;;;;;0.57;0.43;;;12.60;99.90;;;;;;4964957;28;20058;-50
2023/04/14 07:48:46;;;;;;;0.30;0.30;;;12.30;99.90;;;;;;4971883;28;20061;-49
2023/04/14 07:51:12;;;;;;;0.65;0.65;;;12.00;99.90;;;;;;4947397;28;20042;-50
2023/04/14 07:53:42;;;;;;;0.10;0.10;;;11.80;99.90;;;;;;4964030;28;20031;-50
2023/04/14 07:56:08;;;;;;;0.30;0.30;;;11.70;99.90;;;;;;4948064;28;20518;-49
2023/04/14 07:58:33;;;;;;;0.20;0.20;;;11.80;99.90;;;;;;4965832;28;20031;-50
2023/04/14 08:00:59;;;;;;;0.08;0.08;;;11.70;99.90;;;;;;4949684;28;20041;-49
2023/04/14 08:03:25;;;;;;;0.30;0.30;;;;;;;;;;4952773;28;20398;-49
2023/04/14 08:05:51;;;;;;;0.45;0.45;;;11.40;99.90;;;;;;4946820;28;20034;-50
2023/04/14 08:08:17;;;;;;;0.20;0.20;;;11.60;99.90;;;;;;4975640;28;20501;-49
2023/04/14 08:10:43;;;;;;;0.32;0.32;;;;;;;;;;4988530;28;20034;-49
2023/04/14 08:13:09;;;;;;;0.10;0.10;;;;;;;;;;4987658;28;20026;-49
2023/04/14 08:15:35;;;;;;;0.35;0.35;;;;;;;;;;4982825;28;20039;-49
2023/04/14 08:18:02;;;;;;;0.55;0.55;;;;;;;;;;4963646;28;20078;-49
2023/04/14 08:20:28;;;;;;;0.70;0.22;;;;;;;;;;4964097;28;20045;-49
2023/04/14 08:22:55;;;;;;;0.88;0.70;;;;;;;;;;4983461;28;20046;-50
2023/04/14 08:25:21;;;;;;;0.70;0.50;;;;;;;;;;4949201;28;20061;-49
2023/04/14 08:27:47;;;;;;;2.15;1.40;;;;;;;;;;4968700;28;20136;-50
2023/04/14 08:30:13;;;;;;;1.17;0.85;;;;;;;;;;4993140;28;20564;-49
2023/04/14 08:32:39;;;;;;;1.05;0.95;;;12.50;99.90;;;;;;4987306;28;20386;-49
2023/04/14 08:35:05;;;;;;;1.25;0.63;;;;;;;;;;4955117;28;20054;-49
2023/04/14 08:37:32;;;;;;;1.00;0.47;;;;;;;;;;4965222;28;20049;-49
2023/04/14 08:39:58;;;;;;;0.50;0.50;;;;;;;;;;4984494;28;20026;-49
2023/04/14 08:42:25;;;;;;;0.45;0.40;;;;;;;;;;4986827;28;20041;-49
2023/04/14 08:44:51;;;;;;;0.82;0.80;;;;;;;;;;4981175;28;20039;-49
2023/04/14 08:47:21;;;;;;;2.75;1.40;;;;;;;;;;4983249;28;20045;-49
2023/04/14 08:50:01;;;;;;;0.30;0.30;;;;;;;;;;4989933;28;20105;-49
2023/04/14 08:52:28;;;;;;;0.30;0.30;;;;;;;;;;4987941;28;20038;-49
2023/04/14 08:54:55;;;;;;;0.38;0.38;;;;;;;;;;4954500;28;20034;-51
2023/04/14 08:57:22;;;;;;;2.60;1.58;;;;;;;;;;4990798;28;20034;-49
2023/04/14 08:59:48;;;;;;;2.88;1.80;;;;;;;;;;4940984;28;20038;-49
2023/04/14 09:02:14;;;;;;;0.60;0.57;;;;;;;;;;4983485;28;20046;-49
2023/04/14 09:04:42;;;;;;;0.75;0.70;;;12.60;99.90;;;;;;4987255;28;20105;-49
2023/04/14 09:07:08;;;;;;;0.73;0.73;;;12.70;99.90;;;;;;4981372;28;20433;-49
2023/04/14 09:09:33;;;;;;;0.75;0.47;;;12.80;99.90;;;;;;4982315;28;20452;-49
2023/04/14 09:12:02;;;;;;;0.90;0.75;;;12.90;99.90;;;;;;4946930;28;20126;-49
2023/04/14 09:14:28;;;;;;;1.17;1.08;;;13.10;99.90;;;;;;4981402;28;20065;-49
2023/04/14 09:16:55;;;;;;;0.90;0.90;;;;;;;;;;4984140;28;20061;-49
2023/04/14 09:19:23;;;;;;;0.35;0.30;;;13.60;99.90;;;;;;4983255;28;20033;-49
2023/04/14 09:21:49;;;;;;;1.92;1.05;;;13.60;99.90;;;;;;4946289;28;20436;-50
2023/04/14 09:24:22;;;;;;;1.65;0.60;;;13.40;99.90;;;;;;4938968;28;20094;-49
2023/04/14 09:26:49;;;;;;;0.57;0.50;;;13.50;99.90;;;;;;4941007;29;20122;-50
2023/04/14 09:29:15;;;;;;;1.65;1.00;;;13.80;99.90;;;;;;4940118;28;20081;-49
2023/04/14 09:31:42;;;;;;;1.05;0.98;;;13.90;99.90;;;;;;4901336;28;20159;-49
2023/04/14 09:34:19;;;;;;;4.30;1.48;;;13.50;99.90;;;;;;4941160;28;20043;-50
2023/04/14 09:37:04;;;;;;;0.50;0.50;;;13.60;99.90;;;;;;4940066;28;20065;-50
2023/04/14 09:39:33;;;;;;;0.60;0.60;;;13.30;99.90;;;;;;4939709;28;20048;-50
2023/04/14 09:42:00;;;;;;;7.03;2.45;;;13.40;99.90;;;;;;4946160;28;20454;-50
2023/04/14 09:44:27;;;;;;;3.08;1.85;;;13.30;99.90;;;;;;4952991;28;20035;-49
2023/04/14 09:47:06;;;;;;;0.77;0.75;;;13.30;99.90;;;;;;4944212;28;20130;-49
2023/04/14 09:49:33;;;;;;;1.55;0.85;;;13.20;99.90;;;;;;4945765;28;20172;-49
2023/04/14 09:52:08;;;;;;;1.67;1.30;;;13.20;99.90;;;;;;4946447;28;20124;-56
2023/04/14 09:54:35;;;;;;;0.45;0.45;;;13.20;99.90;;;;;;4990175;28;20486;-64
2023/04/14 09:57:01;;;;;;;1.75;1.17;;;13.30;99.90;;;;;;4991245;28;20038;-58
2023/04/14 09:59:36;;;;;;;1.30;0.98;;;13.30;99.90;;;;;;4989798;28;20450;-58
2023/04/14 10:02:08;;;;;;;0.65;0.50;;;13.80;99.90;;;;;;4987042;28;20041;-55
2023/04/14 10:04:36;;;;;;;1.40;0.75;;;13.70;99.90;;;;;;4988828;28;20038;-50
2023/04/14 10:07:11;;;;;;;0.40;0.40;;;13.80;99.90;;;;;;4992416;28;20557;-51
2023/04/14 10:09:37;;;;;;;0.75;0.57;;;13.80;99.90;;;;;;4988221;28;20046;-52
2023/04/14 10:12:14;;;;;;;0.60;0.60;;;13.70;99.90;;;;;;4989027;28;20026;-55
2023/04/14 10:14:40;;;;;;;0.52;0.52;;;14.00;99.90;;;;;;4988985;28;20034;-54
2023/04/14 10:17:06;;;;;;;0.73;0.55;;;14.00;99.90;;;;;;4977075;28;20086;-50
2023/04/14 10:19:32;;;;;;;0.43;0.43;;;14.10;99.90;;;;;;4989137;28;20049;-51
2023/04/14 10:21:59;;;;;;;1.08;0.68;;;;;;;;;;4989666;28;20100;-49
2023/04/14 10:24:25;;;;;;;0.63;0.57;;;14.60;99.90;;;;;;4995085;28;20443;-49
2023/04/14 10:26:51;;;;;;;0.60;0.47;;;14.90;99.90;;;;;;4988455;28;20042;-50
2023/04/14 10:29:17;;;;;;;0.98;0.60;;;15.00;99.90;;;;;;4988673;28;20026;-52
2023/04/14 10:31:49;;;;;;;1.13;0.90;;;;;;;;;;4988201;28;20030;-56
2023/04/14 10:34:15;;;;;;;0.60;0.60;;;15.70;99.90;;;;;;4992376;28;20034;-57
2023/04/14 10:36:42;;;;;;;0.85;0.73;;;;;;;;;;4982535;28;20394;-57
2023/04/14 10:39:10;;;;;;;0.73;0.40;;;16.20;99.90;;;;;;4994585;28;20129;-56
2023/04/14 10:41:46;;;;;;;0.30;0.30;;;15.80;99.90;;;;;;4989528;28;20034;-60
2023/04/14 10:44:31;;;;;;;0.30;0.30;;;15.70;99.90;;;;;;4989963;28;20057;-57
2023/04/14 10:47:00;;;;;;;0.75;0.38;;;16.10;99.90;;;;;;4990853;28;20118;-61
2023/04/14 10:49:35;;;;;;;1.05;0.68;;;16.70;99.90;;;;;;4996570;28;20117;-56
2023/04/14 10:52:03;;;;;;;2.58;0.43;;;;;;;;;;4989124;28;20478;-57
2023/04/14 10:55:06;;;;;;;0.22;0.20;;;19.20;99.90;;;;;;4984401;28;20530;-56
2023/04/14 10:57:42;;;;;;;0.30;0.30;;;17.90;99.90;;;;;;4986163;28;20116;-57
2023/04/14 11:00:20;;;;;;;0.82;0.68;;;17.20;99.90;;;;;;4987364;28;20026;-56
2023/04/14 11:02:56;;;;;;;0.30;0.30;;;;;;;;;;4986758;28;20165;-57
2023/04/14 11:05:21;;;;;;;0.73;0.60;;;18.60;99.90;;;;;;4985534;28;20034;-58
2023/04/14 11:07:50;;;;;;;20.08;9.88;;;;;;;;;;4988583;28;20494;-62
2023/04/14 11:10:16;;;;;;;1.15;1.05;;;19.80;99.90;;;;;;4990156;28;20033;-57
2023/04/14 11:12:46;;;;;;;0.40;0.40;;;19.10;99.90;;;;;;4959951;28;20035;-56
2023/04/14 11:15:13;;;;;;;0.38;0.35;;;18.60;99.90;;;;;;4982766;28;20051;-55
2023/04/14 11:17:40;;;;;;;2.10;0.77;;;19.20;99.90;;;;;;4993123;28;20050;-53
2023/04/14 11:20:24;;;;;;;1.13;0.40;;;19.50;99.90;;;;;;4995133;28;20036;-54
2023/04/14 11:22:52;;;;;;;0.30;0.30;;;19.50;99.90;;;;;;4987112;28;20175;-53
2023/04/14 11:25:20;;;;;;;1.10;0.75;;;18.80;99.90;;;;;;4994925;28;20038;-54
2023/04/14 11:27:50;;;;;;;0.32;0.32;;;;;;;;;;4995150;28;20474;-52
2023/04/14 11:30:17;;;;;;;0.70;0.40;;;;;;;;;;5013888;28;20120;-54
2023/04/14 11:32:49;;;;;;;2.80;1.10;;;19.40;99.90;;;;;;5001063;28;20094;-53
2023/04/14 11:35:16;;;;;;;1.27;0.82;;;19.70;99.90;;;;;;4995013;28;20045;-54
2023/04/14 11:37:43;;;;;;;0.60;0.43;;;18.90;99.90;;;;;;5008090;28;20022;-55
2023/04/14 11:40:10;;;;;;;1.17;0.73;;;18.30;99.90;;;;;;4995485;28;20146;-53
2023/04/14 11:42:37;;;;;;;0.10;0.10;;;17.90;99.90;;;;;;4995017;28;20168;-53
2023/04/14 11:45:03;;;;;;;0.32;0.30;;;17.80;99.90;;;;;;4995253;28;20113;-55
2023/04/14 11:47:29;;;;;;;0.20;0.20;;;18.70;99.90;;;;;;4994811;28;20038;-53
2023/04/14 11:49:56;;;;;;;0.10;0.10;;;;;;;;;;4994860;28;20114;-55
2023/04/14 11:52:21;;;;;;;0.30;0.30;;;17.50;99.90;;;;;;4995125;28;20123;-54
2023/04/14 11:54:48;;;;;;;0.28;0.28;;;18.00;99.90;;;;;;4995307;28;20038;-54
2023/04/14 11:57:16;;;;;;;0.75;0.75;;;17.80;99.90;;;;;;5000286;28;20023;-55
2023/04/14 11:59:44;;;;;;;0.15;0.15;;;18.00;99.90;;;;;;5013602;28;20580;-53
2023/04/14 12:02:19;;;;;;;2.75;1.25;;;17.00;99.90;;;;;;4994714;28;20382;-53
2023/04/14 12:04:45;;;;;;;0.20;0.20;;;17.10;99.90;;;;;;4994676;28;20445;-54
2023/04/14 12:07:16;;;;;;;0.32;0.32;;;17.40;99.90;;;;;;4994170;28;20474;-54
2023/04/14 12:09:47;;;;;;;8.40;4.20;;;17.80;99.90;;;;;;4986504;28;20136;-53
2023/04/14 12:12:15;;;;;;;2.33;1.17;;;18.20;99.90;;;;;;5013203;28;20034;-53
2023/04/14 12:14:45;;;;;;;0.98;0.50;;;;;;;;;;5013658;28;20038;-53
2023/04/14 12:17:12;;;;;;;1.02;0.43;;;;;;;;;;4994010;28;20047;-53
2023/04/14 12:19:38;;;;;;;0.38;0.30;;;19.10;99.90;;;;;;5001710;28;20045;-52
2023/04/14 12:22:06;;;;;;;0.82;0.52;;;19.00;99.90;;;;;;5008293;28;20030;-52
2023/04/14 12:24:33;;;;;;;1.25;0.57;;;18.80;99.90;;;;;;5002288;28;20060;-52
2023/04/14 12:26:59;;;;;;;3.13;0.93;;;18.90;99.90;;;;;;4995947;28;20034;-52
2023/04/14 12:29:25;;;;;;;1.33;0.75;;;18.80;99.90;;;;;;4967754;28;20045;-53
2023/04/14 12:31:52;;;;;;;1.33;0.98;;;19.00;99.90;;;;;;5001754;28;20230;-51
2023/04/14 12:34:27;;;;;;;1.58;1.00;;;19.10;99.90;;;;;;5006595;28;20040;-52
2023/04/14 12:36:53;;;;;;;3.65;0.88;;;19.20;99.90;;;;;;4988929;28;20442;-53
2023/04/14 12:39:22;;;;;;;2.00;1.45;;;18.90;99.90;;;;;;5003090;28;20036;-51
2023/04/14 12:41:48;;;;;;;2.45;1.73;;;18.80;99.90;;;;;;5002198;28;20105;-52
2023/04/14 12:44:16;;;;;;;0.55;0.55;;;;;;;;;;5005267;28;20426;-53
2023/04/14 12:47:00;;;;;;;2.55;1.10;;;;;;;;;;4996711;28;20032;-52
2023/04/14 12:49:35;;;;;;;3.47;0.90;;;18.50;99.90;;;;;;5013997;28;20033;-53
2023/04/14 12:52:01;;;;;;;1.45;0.80;;;18.30;99.90;;;;;;5010881;28;20041;-53
2023/04/14 12:54:47;;;;;;;1.00;0.73;;;18.10;99.90;;;;;;4996009;28;20038;-53
2023/04/14 12:57:13;;;;;;;1.33;0.85;;;17.90;99.90;;;;;;4999363;28;20034;-52
2023/04/14 12:59:39;;;;;;;1.20;1.00;;;17.80;99.90;;;;;;5010883;28;20087;-53
2023/04/14 13:02:06;;;;;;;1.73;1.15;;;;;;;;;;5006598;28;20041;-51
2023/04/14 13:04:32;;;;;;;2.15;1.23;;;17.40;99.90;;;;;;5013956;28;20117;-52
2023/04/14 13:06:58;;;;;;;1.33;0.93;;;;;;;;;;4998940;28;20112;-52